Aviation Digital Data Service (ADDS)

Output produced by METARs form (1910 UTC 28 August 2015)
found at http://aviationweather.gov/adds/metars/
 
KATL 281729Z 2818/2924 11012G18KT P6SM BKN015 BKN025 
     FM282000 10014KT P6SM BKN040 BKN250 
     FM290000 11007KT P6SM SCT050 SCT250 
     FM290900 10007KT 5SM BR BKN009 
     FM291400 12010KT P6SM VCSH BKN015 OVC035 
     PROB30 2914/2918 6SM -SHRA BKN010 
     FM291800 12012KT 6SM -SHRA BKN030 OVC080